Onefour, Canada
Current Conditions -  °F | °C
As of 3:53 AM on Monday 20 Oct 2014 (Local Time) from KHVR Reporting Station
Clear Clear  
Wind Chill: 34°   Ceiling: Unl
Heat Index: 38°   Visibility: 10mi
Dew Point: 36°   Wind: 5mph
Humidity: 93%   Direction: 80°E
Pressure: 29.84"   Gusts: NA
Location:  49.07°N, 110.45°W
Report Text: KHVR 200953Z AUTO 08004KT 10SM CLR 03/02 A2984 RMK AO2 SLP104 T00330022
Loading
Personal Weather Stations






























Interactive Weather Map
Tropical Storm Tracking
New forecast layout! Learn more

10-Day Weather Forecast

Advertisements
Track Severe Weather on mobile